Time;durP1;ratioP1;P1;durP2;ratioP2;P2;SDS_P1;SDS_P2;PMS_P1;PMS_P2;Temp;Humidity;BMP_temperature;BMP_pressure;BME280_temperature;BME280_humidity;BME280_pressure;Samples;Min_cycle;Max_cycle;Signal;HPM_P1;HPM_P2
2021/11/07 00:04:25;;;;;;;10.23;9.23;;;6.50;84.00;;;;;;5085723;28;20981;-37
2021/11/07 00:06:41;;;;;;;11.30;9.97;;;6.40;84.00;;;;;;5084031;28;20452;-39
2021/11/07 00:11:40;;;;;;;9.57;8.67;;;6.30;84.60;;;;;;5087480;28;20407;-39
2021/11/07 00:14:08;;;;;;;11.03;9.87;;;6.30;84.00;;;;;;5087974;28;20502;-37
2021/11/07 00:16:37;;;;;;;9.67;8.67;;;6.20;84.40;;;;;;5087344;28;20965;-38
2021/11/07 00:24:48;;;;;;;10.27;9.27;;;6.10;84.00;;;;;;5085658;28;20431;-38
2021/11/07 00:27:33;;;;;;;10.37;9.30;;;6.10;84.20;;;;;;5085858;28;20939;-37
2021/11/07 00:35:55;;;;;;;11.77;9.87;;;5.90;84.50;;;;;;5071363;28;20473;-38
2021/11/07 00:38:26;;;;;;;10.13;8.97;;;5.90;84.50;;;;;;5087478;28;20495;-38
2021/11/07 00:41:09;;;;;;;8.87;7.57;;;5.80;84.50;;;;;;5088148;28;20431;-38
2021/11/07 00:43:44;;;;;;;10.00;9.10;;;5.80;84.40;;;;;;5088242;28;20464;-38
2021/11/07 00:46:23;;;;;;;9.63;8.63;;;5.80;84.40;;;;;;5080362;28;20837;-38
2021/11/07 00:48:58;;;;;;;10.10;9.00;;;5.70;84.40;;;;;;5087593;28;20437;-37
2021/11/07 00:51:30;;;;;;;8.97;8.10;;;5.70;84.60;;;;;;5088535;28;20410;-37
2021/11/07 00:56:34;;;;;;;9.63;8.63;;;5.70;85.10;;;;;;5094418;28;20509;-38
2021/11/07 01:01:33;;;;;;;9.80;8.70;;;5.70;85.50;;;;;;5084605;28;20705;-38
2021/11/07 01:04:02;;;;;;;11.40;9.17;;;5.70;85.90;;;;;;5088983;28;20443;-38
2021/11/07 01:06:29;;;;;;;10.67;8.00;;;5.70;86.20;;;;;;5086657;28;20410;-38
2021/11/07 01:08:55;;;;;;;8.63;7.70;;;5.70;86.30;;;;;;5087288;28;20463;-38
2021/11/07 01:11:20;;;;;;;10.07;9.03;;;5.70;86.50;;;;;;5085483;28;20938;-37
2021/11/07 01:13:46;;;;;;;8.60;7.70;;;5.70;86.60;;;;;;5081634;28;20189;-38
2021/11/07 01:16:12;;;;;;;9.67;8.37;;;5.70;86.80;;;;;;5087390;28;20188;-37
2021/11/07 01:18:38;;;;;;;9.50;8.50;;;5.70;86.90;;;;;;5092056;28;20182;-37
2021/11/07 01:21:04;;;;;;;10.13;8.47;;;5.70;87.10;;;;;;5086253;28;20526;-38
2021/11/07 01:23:42;;;;;;;9.03;8.13;;;5.70;87.20;;;;;;5068174;28;20706;-37
2021/11/07 01:26:23;;;;;;;9.00;7.63;;;5.70;87.30;;;;;;5093733;28;20583;-38
2021/11/07 01:28:54;;;;;;;9.80;8.80;;;5.70;87.40;;;;;;5093427;28;20418;-37
2021/11/07 01:31:20;;;;;;;10.33;8.73;;;5.70;87.50;;;;;;5093116;28;20428;-36
2021/11/07 01:33:46;;;;;;;9.73;8.73;;;5.70;87.60;;;;;;5092341;28;20430;-37
2021/11/07 01:38:53;;;;;;;10.03;9.00;;;5.60;87.60;;;;;;5092580;28;20414;-38
2021/11/07 01:43:46;;;;;;;11.00;9.30;;;5.60;88.20;;;;;;5092757;28;20412;-38
2021/11/07 01:48:54;;;;;;;10.87;9.60;;;5.60;88.60;;;;;;5096839;28;20492;-37
2021/11/07 01:51:21;;;;;;;9.87;8.80;;;5.60;88.70;;;;;;5085180;28;20785;-37
2021/11/07 01:53:48;;;;;;;11.27;9.57;;;5.60;88.80;;;;;;5081426;28;20419;-37
2021/11/07 01:56:14;;;;;;;10.37;9.27;;;5.60;88.80;;;;;;5086976;28;20427;-45
2021/11/07 01:58:42;;;;;;;10.47;9.37;;;5.60;88.90;;;;;;5089047;28;20424;-45
2021/11/07 02:01:08;;;;;;;10.50;9.40;;;5.60;88.90;;;;;;5087192;28;20940;-45
2021/11/07 02:03:35;;;;;;;9.17;8.27;;;5.60;88.80;;;;;;5087669;28;20840;-45
2021/11/07 02:06:01;;;;;;;9.90;8.90;;;5.60;88.90;;;;;;5085778;28;20427;-45
2021/11/07 02:08:27;;;;;;;10.77;9.67;;;5.60;88.90;;;;;;5089377;28;20831;-45
2021/11/07 02:10:54;;;;;;;11.00;9.70;;;5.60;88.90;;;;;;5089237;28;20508;-45
2021/11/07 02:13:20;;;;;;;12.93;10.43;;;5.60;88.80;;;;;;5088096;28;20439;-45
2021/11/07 02:15:46;;;;;;;11.43;10.23;;;5.60;89.10;;;;;;5087196;28;20435;-45
2021/11/07 02:18:12;;;;;;;10.10;9.07;;;5.60;89.40;;;;;;5087019;28;20457;-37
2021/11/07 02:20:40;;;;;;;10.77;9.43;;;5.60;89.60;;;;;;5088800;28;20216;-37
2021/11/07 02:23:14;;;;;;;9.10;8.20;;;5.50;89.50;;;;;;5071705;28;20435;-37
2021/11/07 02:25:41;;;;;;;10.47;8.63;;;5.50;89.60;;;;;;5088683;28;20438;-38
2021/11/07 02:28:08;;;;;;;11.03;9.83;;;5.50;89.60;;;;;;5089892;28;20877;-36
2021/11/07 02:30:36;;;;;;;10.90;9.80;;;5.50;89.50;;;;;;5088971;28;20712;-37
2021/11/07 02:33:03;;;;;;;10.77;9.20;;;5.50;89.50;;;;;;5089975;28;20430;-38
2021/11/07 02:35:30;;;;;;;10.20;9.17;;;5.50;89.60;;;;;;5070370;28;20445;-38
2021/11/07 02:37:56;;;;;;;14.60;10.50;;;5.50;89.70;;;;;;5088458;28;20453;-39
2021/11/07 02:40:23;;;;;;;11.17;10.07;;;5.40;89.80;;;;;;5085903;28;20440;-37
2021/11/07 02:42:49;;;;;;;12.20;10.47;;;5.40;89.90;;;;;;5087817;28;20425;-38
2021/11/07 02:45:16;;;;;;;13.17;11.40;;;5.40;89.90;;;;;;5087308;28;20440;-39
2021/11/07 02:47:45;;;;;;;11.17;9.97;;;5.40;90.00;;;;;;5068301;28;20467;-39
2021/11/07 02:50:12;;;;;;;11.20;9.60;;;5.40;90.10;;;;;;5088135;28;20477;-38
2021/11/07 02:52:39;;;;;;;12.53;10.47;;;5.30;90.10;;;;;;5087960;28;20416;-38
2021/11/07 02:55:06;;;;;;;12.50;10.90;;;5.30;90.10;;;;;;5086858;28;20418;-39
2021/11/07 02:57:32;;;;;;;11.20;10.00;;;5.30;90.20;;;;;;5087749;28;20411;-38
2021/11/07 02:59:59;;;;;;;11.83;10.53;;;5.30;90.50;;;;;;5086652;28;20414;-39
2021/11/07 03:02:26;;;;;;;11.87;10.67;;;5.20;90.40;;;;;;5088370;28;20415;-38
2021/11/07 03:04:52;;;;;;;11.37;10.10;;;5.20;90.50;;;;;;5087419;28;20850;-38
2021/11/07 03:07:17;;;;;;;10.80;9.70;;;5.20;90.60;;;;;;5087062;28;20501;-38
2021/11/07 03:09:43;;;;;;;11.67;10.47;;;5.10;90.60;;;;;;5089008;28;20896;-38
2021/11/07 03:12:10;;;;;;;10.67;9.63;;;5.10;90.70;;;;;;5086753;28;20304;-38
2021/11/07 03:14:47;;;;;;;10.47;9.17;;;5.10;90.80;;;;;;5087238;28;20578;-38
2021/11/07 03:17:15;;;;;;;10.60;8.70;;;5.10;90.80;;;;;;5087192;28;20856;-38
2021/11/07 03:19:41;;;;;;;11.00;9.53;;;5.00;90.80;;;;;;5083777;28;20604;-36
2021/11/07 03:22:16;;;;;;;10.47;8.93;;;5.10;90.80;;;;;;5089680;28;20484;-39
2021/11/07 03:24:42;;;;;;;10.63;9.37;;;5.10;90.80;;;;;;5090157;28;20419;-38
2021/11/07 03:27:18;;;;;;;10.50;9.43;;;5.00;90.70;;;;;;5087849;28;20482;-37
2021/11/07 03:29:46;;;;;;;9.90;9.00;;;5.00;90.60;;;;;;5068514;28;20412;-38
2021/11/07 03:32:21;;;;;;;9.93;8.90;;;5.00;90.50;;;;;;5087539;28;20847;-38
2021/11/07 03:34:50;;;;;;;10.13;9.13;;;5.00;90.50;;;;;;5085522;28;20415;-38
2021/11/07 03:37:22;;;;;;;14.43;8.57;;;5.00;90.40;;;;;;5085373;28;20421;-38
2021/11/07 03:39:52;;;;;;;10.17;8.63;;;5.00;90.40;;;;;;5083511;28;20489;-37
2021/11/07 03:42:18;;;;;;;10.20;8.87;;;5.00;90.30;;;;;;5084963;28;20434;-39
2021/11/07 03:44:45;;;;;;;9.27;8.37;;;4.90;90.30;;;;;;5087192;28;20421;-38
2021/11/07 03:47:11;;;;;;;10.07;9.03;;;4.90;90.20;;;;;;5091485;28;20521;-38
2021/11/07 03:49:38;;;;;;;9.07;8.17;;;4.90;90.30;;;;;;5089169;28;20866;-39
2021/11/07 03:52:05;;;;;;;11.63;9.73;;;4.90;90.20;;;;;;5088143;28;21006;-38
2021/11/07 03:54:31;;;;;;;9.77;8.70;;;4.90;90.20;;;;;;5085990;28;20517;-38
2021/11/07 03:56:58;;;;;;;11.10;9.30;;;4.80;90.20;;;;;;5088063;28;20431;-38
2021/11/07 03:59:25;;;;;;;9.20;8.20;;;4.80;90.20;;;;;;5085177;28;20517;-38
2021/11/07 04:01:52;;;;;;;9.87;8.83;;;4.80;90.20;;;;;;5089079;28;20420;-38
2021/11/07 04:04:18;;;;;;;10.10;9.10;;;4.80;90.20;;;;;;5088368;28;20555;-39
2021/11/07 04:06:43;;;;;;;10.87;9.77;;;4.80;90.20;;;;;;5087823;28;20518;-38
2021/11/07 04:09:09;;;;;;;10.20;9.17;;;4.80;90.20;;;;;;5068335;28;20754;-37
2021/11/07 04:11:36;;;;;;;10.07;9.07;;;4.80;90.30;;;;;;5086233;28;20534;-38
2021/11/07 04:14:04;;;;;;;10.50;9.40;;;4.70;90.30;;;;;;5086308;28;20442;-38
2021/11/07 04:16:30;;;;;;;10.80;9.37;;;4.70;90.40;;;;;;5086765;28;20506;-39
2021/11/07 04:18:56;;;;;;;10.00;9.00;;;4.70;90.60;;;;;;5086885;28;20426;-38
2021/11/07 04:21:22;;;;;;;11.67;8.97;;;4.70;90.70;;;;;;5088115;28;20472;-38
2021/11/07 04:23:48;;;;;;;9.30;8.40;;;4.70;90.90;;;;;;5068495;28;20494;-38
2021/11/07 04:26:13;;;;;;;10.70;8.80;;;4.70;90.90;;;;;;5068965;28;20208;-39
2021/11/07 04:28:39;;;;;;;10.47;9.37;;;4.70;91.00;;;;;;5087019;28;20877;-38
2021/11/07 04:31:05;;;;;;;9.53;8.60;;;4.70;90.90;;;;;;5084986;28;20451;-38
2021/11/07 04:33:31;;;;;;;8.70;7.80;;;4.60;90.80;;;;;;5086510;28;20184;-38
2021/11/07 04:35:57;;;;;;;9.40;8.40;;;4.70;90.80;;;;;;5085781;28;20247;-37
2021/11/07 04:38:24;;;;;;;8.10;7.30;;;4.70;90.90;;;;;;5085086;28;20423;-38
2021/11/07 04:40:50;;;;;;;8.87;7.60;;;4.70;90.90;;;;;;5086812;28;20465;-38
2021/11/07 04:43:17;;;;;;;9.93;8.03;;;4.70;91.00;;;;;;5086083;28;20454;-38
2021/11/07 04:45:43;;;;;;;7.97;7.17;;;4.70;91.10;;;;;;5085003;28;20427;-38
2021/11/07 04:48:08;;;;;;;9.17;8.10;;;4.70;91.20;;;;;;5087034;28;20468;-38
2021/11/07 04:50:36;;;;;;;7.80;6.80;;;4.70;91.30;;;;;;5086895;28;20770;-39
2021/11/07 04:53:07;;;;;;;9.33;8.13;;;4.70;91.30;;;;;;5089872;28;20185;-38
2021/11/07 04:55:35;;;;;;;9.43;8.30;;;4.70;91.30;;;;;;5089584;28;20466;-37
2021/11/07 04:58:01;;;;;;;9.83;8.83;;;4.70;91.40;;;;;;5072237;28;20534;-39
2021/11/07 05:00:27;;;;;;;8.37;7.43;;;4.70;91.30;;;;;;5091832;28;20715;-38
2021/11/07 05:02:53;;;;;;;9.30;8.20;;;4.60;91.30;;;;;;5089896;28;20416;-44
2021/11/07 05:05:19;;;;;;;9.10;8.17;;;4.60;91.40;;;;;;5090345;28;20193;-43
2021/11/07 05:07:45;;;;;;;9.27;7.83;;;4.60;91.50;;;;;;5091591;28;20213;-43
2021/11/07 05:10:12;;;;;;;9.90;8.53;;;4.70;91.70;;;;;;5071707;28;20520;-43
2021/11/07 05:12:38;;;;;;;8.27;6.97;;;4.70;91.70;;;;;;5089699;28;20434;-44
2021/11/07 05:15:06;;;;;;;8.93;7.80;;;4.70;91.60;;;;;;5090823;28;20442;-45
2021/11/07 05:17:32;;;;;;;8.80;7.50;;;4.70;91.60;;;;;;5089720;28;20827;-42
2021/11/07 05:19:59;;;;;;;8.83;7.70;;;4.70;91.70;;;;;;5089332;28;20756;-42
2021/11/07 05:22:24;;;;;;;9.77;7.57;;;4.70;91.30;;;;;;5087356;28;20420;-44
2021/11/07 05:24:50;;;;;;;9.70;8.23;;;4.70;91.30;;;;;;5090650;28;20449;-42
2021/11/07 05:27:16;;;;;;;9.00;7.80;;;4.70;91.20;;;;;;5090255;28;20912;-43
2021/11/07 05:29:41;;;;;;;11.20;7.77;;;4.80;91.30;;;;;;5071296;28;20272;-43
2021/11/07 05:32:07;;;;;;;10.00;8.93;;;4.70;91.20;;;;;;5088373;28;20188;-44
2021/11/07 05:34:33;;;;;;;10.50;9.40;;;4.70;91.30;;;;;;5091973;28;20193;-45
2021/11/07 05:36:59;;;;;;;9.67;7.53;;;4.70;91.30;;;;;;5088962;28;20865;-42
2021/11/07 05:39:25;;;;;;;8.60;7.70;;;4.70;91.40;;;;;;5089897;28;20559;-44
2021/11/07 05:41:51;;;;;;;8.73;7.80;;;4.70;91.40;;;;;;5090347;28;20212;-43
2021/11/07 05:44:17;;;;;;;10.23;8.50;;;4.70;91.50;;;;;;5088306;28;20470;-45
2021/11/07 05:46:43;;;;;;;11.77;9.30;;;4.70;91.60;;;;;;5090483;28;20415;-46
2021/11/07 05:49:09;;;;;;;10.90;8.27;;;4.70;91.60;;;;;;5090022;28;20586;-42
2021/11/07 05:51:36;;;;;;;9.10;7.70;;;4.70;91.60;;;;;;5088065;28;20408;-43
2021/11/07 05:54:02;;;;;;;9.83;8.83;;;4.70;91.70;;;;;;5088253;28;20191;-42
2021/11/07 05:56:29;;;;;;;10.53;8.90;;;4.70;91.60;;;;;;5070173;28;20505;-45
2021/11/07 05:58:55;;;;;;;9.60;8.47;;;4.70;91.60;;;;;;5089208;28;20419;-42
2021/11/07 06:01:21;;;;;;;12.60;9.50;;;4.70;91.50;;;;;;5070901;28;20492;-44
2021/11/07 06:03:46;;;;;;;11.33;10.13;;;4.70;91.50;;;;;;5085908;28;20833;-43
2021/11/07 06:06:12;;;;;;;13.47;11.37;;;4.60;91.60;;;;;;5088393;28;20207;-43
2021/11/07 06:08:38;;;;;;;13.63;11.27;;;4.60;91.80;;;;;;5088675;28;20362;-44
2021/11/07 06:11:04;;;;;;;12.47;10.97;;;4.60;91.90;;;;;;5086754;28;20579;-41
2021/11/07 06:13:30;;;;;;;14.33;12.40;;;4.60;92.00;;;;;;5088979;28;20448;-43
2021/11/07 06:15:57;;;;;;;13.17;11.07;;;4.60;92.10;;;;;;5088752;28;20173;-44
2021/11/07 06:18:23;;;;;;;14.10;11.77;;;4.60;92.10;;;;;;5089143;28;20208;-43
2021/11/07 06:20:49;;;;;;;13.43;10.80;;;4.50;92.10;;;;;;5092545;28;20494;-45
2021/11/07 06:23:15;;;;;;;12.53;10.70;;;4.60;92.20;;;;;;5097677;28;20431;-43
2021/11/07 06:25:41;;;;;;;13.67;11.37;;;4.60;92.10;;;;;;5098248;28;20181;-44
2021/11/07 06:28:07;;;;;;;16.20;12.93;;;4.50;92.10;;;;;;5088649;28;20281;-43
2021/11/07 06:30:33;;;;;;;13.43;11.10;;;4.50;92.10;;;;;;5078447;28;20184;-44
2021/11/07 06:33:00;;;;;;;14.07;12.50;;;4.60;92.30;;;;;;5082539;28;20499;-43
2021/11/07 06:35:26;;;;;;;14.57;12.57;;;4.60;92.40;;;;;;5067669;28;20790;-42
2021/11/07 06:37:52;;;;;;;17.90;13.67;;;4.60;92.40;;;;;;5087379;28;20517;-42
2021/11/07 06:40:18;;;;;;;15.80;12.60;;;4.60;92.50;;;;;;5084936;28;20471;-41
2021/11/07 06:42:43;;;;;;;14.53;11.73;;;4.60;92.50;;;;;;5087813;28;20445;-42
2021/11/07 06:45:11;;;;;;;14.47;12.93;;;4.70;92.60;;;;;;5085289;28;20254;-43
2021/11/07 06:47:37;;;;;;;14.47;11.30;;;4.70;92.60;;;;;;5087762;28;20460;-44
2021/11/07 06:50:04;;;;;;;16.40;13.00;;;4.80;92.60;;;;;;5087234;28;20445;-42
2021/11/07 06:52:30;;;;;;;13.93;12.40;;;4.80;92.60;;;;;;5089096;28;20898;-44
2021/11/07 06:54:56;;;;;;;16.43;12.40;;;4.90;92.50;;;;;;5087959;28;20431;-42
2021/11/07 06:57:21;;;;;;;15.10;12.33;;;5.00;92.60;;;;;;5088299;28;20181;-42
2021/11/07 06:59:47;;;;;;;16.87;13.67;;;5.10;92.60;;;;;;5089322;28;20711;-42
2021/11/07 07:02:13;;;;;;;16.83;13.23;;;5.30;92.50;;;;;;5087031;28;20529;-42
2021/11/07 07:04:39;;;;;;;13.97;12.47;;;5.50;92.40;;;;;;5088394;28;20189;-44
2021/11/07 07:07:06;;;;;;;16.50;13.67;;;5.70;92.30;;;;;;5089099;28;20466;-41
2021/11/07 07:09:40;;;;;;;14.43;11.90;;;5.90;92.10;;;;;;5086753;28;20408;-42
2021/11/07 07:12:16;;;;;;;16.10;13.00;;;6.00;91.80;;;;;;5087165;28;20414;-40
2021/11/07 07:20:05;;;;;;;17.30;12.43;;;6.30;91.40;;;;;;5087028;28;20964;-41
2021/11/07 07:27:47;;;;;;;14.47;12.23;;;6.50;91.30;;;;;;5085023;28;20212;-41
2021/11/07 07:35:52;;;;;;;13.97;12.30;;;6.60;91.20;;;;;;5073076;28;20860;-42
2021/11/07 07:38:18;;;;;;;15.87;13.03;;;6.70;91.20;;;;;;5087374;28;20438;-43
2021/11/07 07:40:45;;;;;;;14.90;12.40;;;6.80;91.20;;;;;;5086469;28;20430;-41
2021/11/07 07:43:11;;;;;;;13.43;12.03;;;6.90;91.20;;;;;;5088320;28;20427;-41
2021/11/07 07:45:37;;;;;;;16.20;13.20;;;7.00;91.10;;;;;;5087862;28;20424;-42
2021/11/07 07:48:03;;;;;;;14.10;12.57;;;7.20;91.00;;;;;;5067598;28;20478;-41
2021/11/07 07:50:29;;;;;;;14.23;12.00;;;7.30;90.90;;;;;;5087209;28;20460;-41
2021/11/07 07:52:55;;;;;;;13.07;11.73;;;7.50;90.80;;;;;;5087328;28;20915;-40
2021/11/07 07:55:21;;;;;;;14.97;12.00;;;7.70;90.70;;;;;;5068761;28;20432;-43
2021/11/07 07:57:47;;;;;;;13.97;12.13;;;8.00;90.70;;;;;;5087057;28;20583;-41
2021/11/07 08:00:15;;;;;;;13.70;11.57;;;8.30;90.60;;;;;;5087962;28;20851;-43
2021/11/07 08:02:42;;;;;;;13.00;11.33;;;8.60;90.20;;;;;;5070377;28;20491;-42
2021/11/07 08:05:09;;;;;;;13.20;11.03;;;8.70;89.30;;;;;;5085872;28;20424;-41
2021/11/07 08:07:35;;;;;;;13.87;11.80;;;8.80;88.70;;;;;;5087604;28;20504;-44
2021/11/07 08:10:02;;;;;;;14.77;11.70;;;8.80;88.30;;;;;;5086096;28;20827;-42
2021/11/07 08:12:28;;;;;;;13.60;12.20;;;8.70;88.10;;;;;;5088122;28;20693;-41
2021/11/07 08:14:54;;;;;;;12.90;11.03;;;8.60;88.10;;;;;;5086614;28;20539;-43
2021/11/07 08:17:20;;;;;;;15.00;10.90;;;8.50;88.00;;;;;;5086294;28;20451;-41
2021/11/07 08:19:45;;;;;;;12.97;11.67;;;8.40;88.00;;;;;;5066595;28;20229;-42
2021/11/07 08:22:12;;;;;;;13.70;11.67;;;8.30;88.40;;;;;;5065759;28;20493;-41
2021/11/07 08:24:38;;;;;;;13.60;11.20;;;8.20;88.80;;;;;;5077143;28;20224;-41
2021/11/07 08:27:06;;;;;;;11.47;10.10;;;8.10;89.10;;;;;;5080286;28;20516;-42
2021/11/07 08:29:31;;;;;;;9.97;8.97;;;8.10;89.50;;;;;;5074469;28;20431;-42
2021/11/07 08:31:59;;;;;;;11.30;10.10;;;8.00;89.60;;;;;;5060156;28;20892;-41
2021/11/07 08:34:30;;;;;;;12.30;10.83;;;8.00;89.80;;;;;;5059281;28;20780;-42
2021/11/07 08:37:07;;;;;;;13.37;10.80;;;8.00;90.00;;;;;;5061583;28;20498;-42
2021/11/07 09:00:57;;;;;;;11.50;8.90;;;7.80;90.30;;;;;;5061748;28;20698;-42
2021/11/07 09:08:49;;;;;;;7.43;3.53;;;9.30;99.00;;;;;;5060551;28;20813;-42
2021/11/07 09:11:19;;;;;;;4.63;3.80;;;10.50;99.90;;;;;;5060176;28;20459;-46
2021/11/07 09:13:46;;;;;;;4.77;4.27;;;11.50;99.00;;;;;;5060040;28;20436;-42
2021/11/07 09:16:14;;;;;;;4.27;3.80;;;12.20;96.60;;;;;;5059391;28;20433;-45
2021/11/07 09:18:40;;;;;;;6.07;4.00;;;12.70;95.40;;;;;;5060998;28;20512;-43
2021/11/07 09:21:10;;;;;;;6.20;4.13;;;13.10;93.70;;;;;;5076193;28;20530;-44
2021/11/07 09:23:40;;;;;;;7.27;4.60;;;13.80;92.20;;;;;;5079041;28;20455;-43
2021/11/07 09:26:29;;;;;;;5.50;3.87;;;14.60;90.40;;;;;;5079397;28;20717;-44
2021/11/07 09:36:33;;;;;;;4.10;3.60;;;18.50;72.00;;;;;;5078799;28;20586;-45
2021/11/07 09:44:11;;;;;;;3.87;3.47;;;19.80;62.50;;;;;;5075751;28;20477;-44
2021/11/07 09:46:44;;;;;;;4.10;2.83;;;19.60;61.10;;;;;;5077844;28;20415;-42
2021/11/07 09:49:18;;;;;;;3.53;3.23;;;19.50;61.20;;;;;;5078404;28;20424;-44
2021/11/07 09:51:53;;;;;;;3.20;2.90;;;19.30;60.90;;;;;;5060886;28;20708;-42
2021/11/07 09:54:19;;;;;;;3.30;3.00;;;19.20;60.70;;;;;;5077892;28;20445;-44
2021/11/07 09:56:50;;;;;;;3.50;2.80;;;19.10;59.20;;;;;;5044539;28;20722;-46
2021/11/07 09:59:16;;;;;;;3.37;3.07;;;18.90;59.30;;;;;;5078289;28;20412;-42
2021/11/07 10:01:44;;;;;;;4.30;3.20;;;18.90;59.10;;;;;;5077893;28;20416;-42
2021/11/07 10:04:11;;;;;;;4.57;3.07;;;18.80;58.40;;;;;;5077926;28;20414;-43
2021/11/07 10:06:48;;;;;;;3.40;2.47;;;18.80;58.50;;;;;;5077901;28;20463;-44
2021/11/07 10:09:28;;;;;;;3.50;2.93;;;18.80;58.30;;;;;;5078339;28;20415;-43
2021/11/07 10:12:05;;;;;;;2.87;2.67;;;18.90;58.60;;;;;;5076361;28;20402;-42
2021/11/07 10:14:43;;;;;;;2.90;2.70;;;19.00;58.30;;;;;;5076539;28;20415;-42
2021/11/07 10:17:32;;;;;;;3.20;2.90;;;19.20;56.80;;;;;;5075269;28;20443;-44
2021/11/07 10:20:21;;;;;;;3.10;2.80;;;19.10;56.40;;;;;;5075594;28;20477;-43
2021/11/07 10:22:55;;;;;;;3.73;2.97;;;18.90;56.20;;;;;;5077938;28;20414;-45
2021/11/07 10:25:29;;;;;;;5.00;2.60;;;18.90;55.90;;;;;;5060761;28;20707;-44
2021/11/07 10:27:57;;;;;;;2.87;2.60;;;19.20;55.50;;;;;;5078502;28;20559;-44
2021/11/07 10:30:27;;;;;;;3.10;2.80;;;19.20;54.50;;;;;;5077714;28;20470;-45
2021/11/07 10:33:15;;;;;;;3.20;2.90;;;19.40;54.20;;;;;;5077138;28;20468;-44
2021/11/07 10:36:30;;;;;;;4.27;2.87;;;20.10;53.70;;;;;;5058542;28;20485;-47
2021/11/07 10:41:36;;;;;;;3.20;2.90;;;21.40;49.20;;;;;;5076013;28;20536;-45
2021/11/07 10:52:37;;;;;;;2.73;2.43;;;20.50;49.80;;;;;;5076662;28;20499;-43
2021/11/07 10:55:24;;;;;;;2.80;2.47;;;20.20;50.60;;;;;;5077554;28;20460;-43
2021/11/07 10:57:59;;;;;;;2.73;2.10;;;20.00;50.80;;;;;;5059626;28;20427;-45
2021/11/07 11:00:37;;;;;;;3.13;2.50;;;19.80;50.80;;;;;;5058948;28;20490;-44
2021/11/07 11:03:09;;;;;;;2.50;2.30;;;19.60;51.10;;;;;;5075886;28;20404;-44
2021/11/07 11:05:40;;;;;;;3.73;2.30;;;19.40;51.60;;;;;;5076533;28;20520;-44
2021/11/07 11:08:24;;;;;;;2.87;2.40;;;19.10;51.40;;;;;;5076372;28;20461;-44
2021/11/07 11:16:44;;;;;;;1.87;1.67;;;18.30;51.90;;;;;;5075385;28;20438;-46
2021/11/07 11:29:45;;;;;;;1.50;1.40;;;17.30;52.80;;;;;;5075880;28;20419;-44
2021/11/07 11:37:37;;;;;;;1.60;1.33;;;16.90;53.40;;;;;;5075872;28;20903;-44
2021/11/07 11:40:30;;;;;;;1.77;1.30;;;16.80;52.80;;;;;;5075996;28;20433;-44
2021/11/07 11:45:39;;;;;;;2.47;1.40;;;16.30;50.50;;;;;;5076711;28;20708;-48
2021/11/07 11:49:05;;;;;;;1.43;1.20;;;15.90;50.50;;;;;;5059392;28;20968;-45
2021/11/07 11:51:53;;;;;;;2.00;1.60;;;15.50;50.70;;;;;;5086773;28;20435;-44
2021/11/07 11:54:44;;;;;;;1.80;1.37;;;15.20;51.20;;;;;;5090930;28;20551;-47
2021/11/07 12:00:07;;;;;;;3.73;1.90;;;16.40;52.10;;;;;;5095774;28;20434;-44
2021/11/07 12:02:50;;;;;;;1.97;1.20;;;17.90;50.80;;;;;;5097332;28;20415;-44
2021/11/07 12:08:44;;;;;;;1.10;0.97;;;21.00;47.30;;;;;;5051191;28;20462;-43
2021/11/07 12:11:25;;;;;;;1.83;1.23;;;21.80;44.60;;;;;;5096633;28;20926;-47
2021/11/07 12:14:09;;;;;;;1.60;1.30;;;22.20;43.00;;;;;;5078817;28;20418;-44
2021/11/07 12:16:47;;;;;;;1.53;1.20;;;22.10;42.70;;;;;;5096566;28;20430;-45
2021/11/07 12:19:15;;;;;;;1.70;1.20;;;22.40;42.90;;;;;;5096102;28;20696;-44
2021/11/07 12:21:56;;;;;;;2.30;1.17;;;23.20;42.80;;;;;;5095862;28;20457;-45
2021/11/07 12:24:29;;;;;;;2.23;1.50;;;23.90;42.40;;;;;;5095764;28;20442;-44
2021/11/07 12:27:24;;;;;;;2.40;1.47;;;24.10;41.10;;;;;;5095876;28;20458;-43
2021/11/07 12:29:55;;;;;;;7.10;2.30;;;24.10;40.50;;;;;;5095642;28;20432;-44
2021/11/07 12:32:44;;;;;;;2.80;2.00;;;23.70;40.30;;;;;;5061655;28;20427;-44
2021/11/07 12:35:56;;;;;;;2.00;1.57;;;23.00;40.60;;;;;;5078012;28;20518;-43
2021/11/07 12:41:12;;;;;;;1.80;1.23;;;21.60;41.90;;;;;;5096757;28;20433;-47
2021/11/07 12:43:40;;;;;;;1.50;1.40;;;20.90;42.60;;;;;;5096085;28;20435;-43
2021/11/07 12:49:15;;;;;;;1.83;1.10;;;20.10;43.90;;;;;;5075373;28;20706;-46
2021/11/07 12:51:57;;;;;;;1.60;1.10;;;19.60;44.30;;;;;;5084640;28;20434;-43
2021/11/07 12:54:22;;;;;;;1.87;1.07;;;19.30;44.70;;;;;;5096149;28;20411;-45
2021/11/07 12:57:06;;;;;;;2.13;1.10;;;18.90;44.70;;;;;;5095621;28;20842;-45
2021/11/07 12:59:40;;;;;;;1.37;0.70;;;18.60;44.90;;;;;;5095086;28;20176;-44
2021/11/07 13:02:08;;;;;;;1.30;0.80;;;18.20;45.40;;;;;;5096597;28;20438;-43
2021/11/07 13:04:58;;;;;;;1.37;1.20;;;18.00;45.90;;;;;;5096463;28;20413;-44
2021/11/07 13:08:24;;;;;;;1.60;1.10;;;17.80;46.30;;;;;;5095443;28;20584;-47
2021/11/07 13:10:36;;;;;;;2.00;1.80;;;17.60;46.70;;;;;;5088065;28;20778;-44
2021/11/07 13:13:18;;;;;;;3.70;3.40;;;17.40;47.10;;;;;;5081175;28;20494;-45
2021/11/07 13:21:49;;;;;;;16.80;13.93;;;17.10;48.80;;;;;;5099155;28;20572;-46
2021/11/07 13:29:54;;;;;;;20.73;16.20;;;17.20;49.70;;;;;;5099540;28;20421;-46
2021/11/07 13:32:30;;;;;;;18.70;15.70;;;17.30;49.80;;;;;;5098650;28;20857;-44
2021/11/07 13:35:10;;;;;;;6.23;5.00;;;17.70;50.00;;;;;;5081678;28;20403;-43
2021/11/07 13:37:50;;;;;;;5.10;3.33;;;18.10;49.80;;;;;;5081246;28;20466;-44
2021/11/07 13:40:24;;;;;;;2.10;1.57;;;18.30;49.60;;;;;;5081298;28;20446;-48
2021/11/07 13:42:50;;;;;;;1.60;1.10;;;18.80;49.40;;;;;;5098004;28;20834;-43
2021/11/07 13:45:21;;;;;;;2.10;1.23;;;19.20;49.10;;;;;;5097186;28;20466;-46
2021/11/07 13:47:47;;;;;;;1.43;0.93;;;19.90;48.70;;;;;;5097820;28;20572;-44
2021/11/07 13:50:16;;;;;;;1.60;1.27;;;20.40;48.10;;;;;;5080447;28;20938;-46
2021/11/07 13:52:43;;;;;;;2.30;1.00;;;20.60;47.70;;;;;;5080192;28;20413;-44
2021/11/07 13:55:33;;;;;;;1.80;1.17;;;20.50;47.30;;;;;;5078991;28;20420;-46
2021/11/07 13:58:14;;;;;;;1.30;0.93;;;20.20;47.40;;;;;;5078070;28;20700;-44
2021/11/07 14:00:41;;;;;;;1.33;1.00;;;19.80;47.60;;;;;;5076672;28;20884;-42
2021/11/07 14:03:15;;;;;;;2.60;2.10;;;19.30;48.00;;;;;;5079213;28;20752;-42
2021/11/07 14:08:49;;;;;;;1.60;1.20;;;18.30;49.10;;;;;;5079730;28;20455;-43
2021/11/07 14:11:17;;;;;;;4.70;1.47;;;17.80;49.60;;;;;;5078940;28;20442;-43
2021/11/07 14:13:46;;;;;;;2.17;1.30;;;17.50;50.20;;;;;;5078803;28;20421;-45
2021/11/07 14:16:17;;;;;;;3.67;1.67;;;17.10;50.60;;;;;;5044890;28;20516;-44
2021/11/07 14:18:48;;;;;;;1.70;1.20;;;16.80;51.20;;;;;;5062020;28;20894;-44
2021/11/07 14:21:18;;;;;;;1.20;1.00;;;16.50;51.80;;;;;;5084546;28;20486;-44
2021/11/07 14:23:52;;;;;;;1.60;1.10;;;16.30;52.30;;;;;;5079226;28;20427;-44
2021/11/07 14:26:37;;;;;;;1.80;1.27;;;16.00;52.80;;;;;;5097419;28;20446;-45
2021/11/07 14:29:21;;;;;;;1.47;1.10;;;15.70;53.30;;;;;;5081833;28;20488;-45
2021/11/07 14:34:39;;;;;;;1.30;0.80;;;15.10;54.50;;;;;;5096390;28;20422;-45
2021/11/07 14:40:19;;;;;;;1.67;0.90;;;14.50;55.80;;;;;;5078877;28;20425;-43
2021/11/07 14:51:22;;;;;;;1.40;1.17;;;13.60;58.30;;;;;;5097470;28;20483;-44
2021/11/07 14:54:25;;;;;;;1.77;1.47;;;13.50;59.10;;;;;;5098691;28;20767;-44
2021/11/07 14:59:36;;;;;;;2.23;1.67;;;13.20;61.50;;;;;;5097424;28;20844;-44
2021/11/07 15:08:06;;;;;;;1.30;1.10;;;12.70;65.80;;;;;;5096442;28;20491;-45
2021/11/07 15:18:38;;;;;;;4.13;1.40;;;12.20;70.20;;;;;;5096933;28;20425;-43
2021/11/07 15:21:14;;;;;;;1.50;1.23;;;12.10;71.40;;;;;;5097184;28;20480;-44
2021/11/07 15:23:42;;;;;;;2.07;1.33;;;12.10;72.50;;;;;;5095709;28;20898;-43
2021/11/07 15:26:34;;;;;;;2.70;1.70;;;12.00;73.40;;;;;;5095210;28;20427;-45
2021/11/07 15:29:08;;;;;;;1.70;1.60;;;11.90;74.40;;;;;;5097140;28;20446;-44
2021/11/07 15:31:35;;;;;;;1.97;1.40;;;11.80;75.10;;;;;;5062456;28;20724;-46
2021/11/07 15:34:26;;;;;;;3.20;2.07;;;11.80;75.90;;;;;;5097340;28;20415;-44
2021/11/07 15:36:54;;;;;;;1.80;1.30;;;11.70;76.80;;;;;;5084822;28;20847;-46
2021/11/07 15:39:23;;;;;;;1.97;1.70;;;11.60;77.70;;;;;;5096139;28;20414;-44
2021/11/07 15:42:10;;;;;;;2.60;2.20;;;11.60;78.80;;;;;;5078728;28;20457;-46
2021/11/07 15:44:54;;;;;;;2.03;1.47;;;11.40;79.80;;;;;;5077304;28;20418;-43
2021/11/07 15:47:25;;;;;;;1.73;1.53;;;11.40;80.60;;;;;;5096092;28;20459;-43
2021/11/07 16:05:05;;;;;;;2.33;1.50;;;11.10;83.10;;;;;;5098296;28;20588;-42
2021/11/07 16:07:41;;;;;;;2.20;1.87;;;11.10;83.30;;;;;;5098160;28;20556;-42
2021/11/07 16:12:41;;;;;;;2.20;1.70;;;11.00;83.00;;;;;;5098054;28;20415;-43
2021/11/07 16:17:35;;;;;;;2.30;1.90;;;10.90;82.90;;;;;;5097876;28;20789;-43
2021/11/07 16:20:08;;;;;;;3.70;1.93;;;10.80;82.90;;;;;;5097747;28;20474;-43
2021/11/07 16:22:34;;;;;;;2.33;1.60;;;10.80;83.30;;;;;;5098162;28;20859;-42